Dilworth, Texas
Current Conditions -  °F | °C
As of 8:55 AM on Sunday 23 Nov 2014 (Local Time) from KT20 Reporting Station
Clear Clear  
Wind Chill: 61°   Ceiling: Unl
Heat Index: 61°   Visibility: 10mi
Dew Point: 57°   Wind: 5mph
Humidity: 86%   Direction: 210°SSW
Pressure: 29.7"   Gusts: NA
Location:  29.481°N, 97.4305°W
Report Text: KT20 231455Z AUTO 21004KT 10SM CLR 16/14 A2970 RMK AO2 T01600137
Loading
Personal Weather Stations






























Interactive Weather Map New forecast layout! Learn more

10-Day Weather Forecast

Advertisements
Track Severe Weather on mobile